Terminal Aerodrome Forecast
Issued by NWS North Platte, NE

Home | Current Version | Previous Version | Graphics & Text | Print | Product List | Glossary On
Versions: 1 2 3 4 5 6 7 8 9 10 11 12 13 14 15
000
FTUS43 KLBF 220500
TAFVTN
TAF
KVTN 220520Z 2206/2306 17017KT P6SM SKC
     FM220900 20012KT P6SM SCT100 OVC200
     FM221200 22006KT P6SM SCT030 BKN100 OVC200
     FM221600 32009KT 3SM -SHRA OVC030
     FM221900 32009KT P6SM BKN050
     FM230000 35006KT P6SM SKC=

USA.gov is the U.S. government's official web portal to all federal, state and local government web resources and services.